createdAt,value
2023-01-06T00:01:20.725Z,11.50
2023-01-06T00:03:50.479Z,11.50
2023-01-06T00:06:18.874Z,11.40
2023-01-06T00:08:46.734Z,11.40
2023-01-06T00:11:16.126Z,11.50
2023-01-06T00:13:43.904Z,11.50
2023-01-06T00:16:13.330Z,11.50
2023-01-06T00:18:42.827Z,11.30
2023-01-06T00:21:11.459Z,11.20
2023-01-06T00:23:39.762Z,11.40
2023-01-06T00:26:09.116Z,11.30
2023-01-06T00:28:37.244Z,11.40
2023-01-06T00:31:10.119Z,11.20
2023-01-06T00:33:38.326Z,11.20
2023-01-06T00:36:09.383Z,11.20
2023-01-06T00:38:38.075Z,11.10
2023-01-06T00:41:27.809Z,11.20
2023-01-06T00:43:55.968Z,11.00
2023-01-06T00:46:26.669Z,11.10
2023-01-06T00:49:04.541Z,11.10
2023-01-06T00:51:34.895Z,11.40
2023-01-06T00:54:02.979Z,11.20
2023-01-06T00:56:30.841Z,11.20
2023-01-06T00:58:58.574Z,11.20
2023-01-06T01:01:26.477Z,10.80
2023-01-06T01:03:54.241Z,11.20
2023-01-06T01:06:22.124Z,11.00
2023-01-06T01:08:54.212Z,11.50
2023-01-06T01:11:36.218Z,11.00
2023-01-06T01:14:04.088Z,11.10
2023-01-06T01:16:32.395Z,11.30
2023-01-06T01:19:00.799Z,11.20
2023-01-06T01:21:28.632Z,11.40
2023-01-06T01:23:57.957Z,11.40
2023-01-06T01:26:25.664Z,11.30
2023-01-06T01:28:53.487Z,11.20
2023-01-06T01:31:21.465Z,11.60
2023-01-06T01:33:49.835Z,11.60
2023-01-06T01:36:19.300Z,11.40
2023-01-06T01:38:47.013Z,11.00
2023-01-06T01:41:18.330Z,11.40
2023-01-06T01:43:47.738Z,11.60
2023-01-06T01:46:19.931Z,11.60
2023-01-06T01:48:48.718Z,11.40
2023-01-06T01:51:18.854Z,11.40
2023-01-06T01:53:52.066Z,11.30
2023-01-06T01:56:24.649Z,11.50
2023-01-06T01:58:56.543Z,11.50
2023-01-06T02:01:24.643Z,11.30
2023-01-06T02:03:53.437Z,11.20
2023-01-06T02:06:23.649Z,11.30
2023-01-06T02:08:57.881Z,11.30
2023-01-06T02:11:28.088Z,11.50
2023-01-06T02:14:10.856Z,11.20
2023-01-06T02:16:56.692Z,11.30
2023-01-06T02:19:57.774Z,11.00
2023-01-06T02:22:46.868Z,11.20
2023-01-06T02:25:43.619Z,11.30
2023-01-06T02:28:42.777Z,11.00
2023-01-06T02:31:45.072Z,11.50
2023-01-06T02:34:23.975Z,11.30
2023-01-06T02:36:59.447Z,11.60
2023-01-06T02:39:37.512Z,11.30
2023-01-06T02:42:18.464Z,11.40
2023-01-06T02:44:55.401Z,11.30
2023-01-06T02:47:32.767Z,11.50
2023-01-06T02:50:11.728Z,11.20
2023-01-06T02:52:46.059Z,10.70
2023-01-06T02:55:20.754Z,11.00
2023-01-06T02:57:54.235Z,11.60
2023-01-06T03:00:27.126Z,11.40
2023-01-06T03:02:59.648Z,11.50
2023-01-06T03:05:29.096Z,11.40
2023-01-06T03:08:00.318Z,11.50
2023-01-06T03:10:29.620Z,11.30
2023-01-06T03:13:02.513Z,11.60
2023-01-06T03:15:30.324Z,11.60
2023-01-06T03:17:59.469Z,11.30
2023-01-06T03:20:27.248Z,11.00
2023-01-06T03:22:55.094Z,11.30
2023-01-06T03:25:23.726Z,11.50
2023-01-06T03:27:51.808Z,11.60
2023-01-06T03:30:19.817Z,11.60
2023-01-06T03:32:55.048Z,11.50
2023-01-06T03:35:45.631Z,11.60
2023-01-06T03:38:21.444Z,11.00
2023-01-06T03:40:57.834Z,11.10
2023-01-06T03:43:30.136Z,11.20
2023-01-06T03:46:16.675Z,11.50
2023-01-06T03:48:56.740Z,11.30
2023-01-06T03:51:37.941Z,11.50
2023-01-06T03:54:10.454Z,11.30
2023-01-06T03:56:42.927Z,11.30
2023-01-06T03:59:18.109Z,11.40
2023-01-06T04:01:46.488Z,11.50
2023-01-06T04:04:14.629Z,11.10
2023-01-06T04:06:43.731Z,11.30
2023-01-06T04:09:11.550Z,11.50
2023-01-06T04:11:57.042Z,11.20
2023-01-06T04:14:24.863Z,11.10
2023-01-06T04:16:52.689Z,11.50
2023-01-06T04:19:20.661Z,11.40
2023-01-06T04:21:49.764Z,11.50
2023-01-06T04:24:17.519Z,11.10
2023-01-06T04:26:45.239Z,11.20
2023-01-06T04:29:13.055Z,11.20
2023-01-06T04:31:40.872Z,11.60
2023-01-06T04:34:08.776Z,11.20
2023-01-06T04:36:36.625Z,11.20
2023-01-06T04:39:05.724Z,11.40
2023-01-06T04:41:33.410Z,11.10
2023-01-06T04:44:01.507Z,10.90
2023-01-06T04:46:29.290Z,11.40
2023-01-06T04:48:57.088Z,11.20
2023-01-06T04:51:24.893Z,11.20
2023-01-06T04:53:52.675Z,11.40
2023-01-06T04:56:21.824Z,11.40
2023-01-06T04:58:49.689Z,11.10
2023-01-06T05:01:17.568Z,10.50
2023-01-06T05:03:45.523Z,11.10
2023-01-06T05:06:13.579Z,11.30
2023-01-06T05:08:43.180Z,11.00
2023-01-06T05:11:13.261Z,11.20
2023-01-06T05:13:42.332Z,11.00
2023-01-06T05:16:11.748Z,11.20
2023-01-06T05:18:39.834Z,11.00
2023-01-06T05:21:07.797Z,10.90
2023-01-06T05:23:35.758Z,10.90
2023-01-06T05:26:03.523Z,10.50
2023-01-06T05:28:31.458Z,11.20
2023-01-06T05:31:05.603Z,11.10
2023-01-06T05:33:34.251Z,10.90
2023-01-06T05:36:03.730Z,11.00
2023-01-06T05:38:34.073Z,10.90
2023-01-06T05:41:02.366Z,11.00
2023-01-06T05:43:30.386Z,11.10
2023-01-06T05:45:58.215Z,11.00
2023-01-06T05:48:28.749Z,11.00
2023-01-06T05:51:02.907Z,11.30
2023-01-06T05:53:33.319Z,11.40
2023-01-06T05:56:02.585Z,11.40
2023-01-06T05:58:32.885Z,11.00
2023-01-06T06:01:00.869Z,10.90
2023-01-06T06:03:30.052Z,11.10
2023-01-06T06:06:03.286Z,11.00
2023-01-06T06:08:31.006Z,11.00
2023-01-06T06:11:03.196Z,11.10
2023-01-06T06:13:31.194Z,11.50
2023-01-06T06:16:06.081Z,11.20
2023-01-06T06:18:36.335Z,11.10
2023-01-06T06:21:04.950Z,11.20
2023-01-06T06:23:33.060Z,11.20
2023-01-06T06:26:00.771Z,11.20
2023-01-06T06:28:30.637Z,11.40
2023-01-06T06:31:04.660Z,11.30
2023-01-06T06:33:32.423Z,10.90
2023-01-06T06:36:02.554Z,10.60
2023-01-06T06:38:30.555Z,11.30
2023-01-06T06:40:58.367Z,11.50
2023-01-06T06:43:26.099Z,11.40
2023-01-06T06:45:53.920Z,11.40
2023-01-06T06:48:21.738Z,11.10
2023-01-06T06:50:57.664Z,11.10
2023-01-06T06:53:27.340Z,11.40
2023-01-06T06:55:56.545Z,11.10
2023-01-06T06:58:24.623Z,11.40
2023-01-06T07:00:52.898Z,11.10
2023-01-06T07:03:21.260Z,11.50
2023-01-06T07:05:50.192Z,11.30
2023-01-06T07:08:18.015Z,11.40
2023-01-06T07:10:47.141Z,10.80
2023-01-06T07:13:14.882Z,11.10
2023-01-06T07:15:42.681Z,10.80
2023-01-06T07:18:10.438Z,10.40
2023-01-06T07:20:39.508Z,10.70
2023-01-06T07:23:07.261Z,10.80
2023-01-06T07:25:35.063Z,11.10
2023-01-06T07:28:06.915Z,10.70
2023-01-06T07:30:35.292Z,10.80
2023-01-06T07:33:03.397Z,10.80
2023-01-06T07:35:31.422Z,10.80
2023-01-06T07:38:03.697Z,11.00
2023-01-06T07:40:31.450Z,11.10
2023-01-06T07:42:59.259Z,10.30
2023-01-06T07:45:28.632Z,10.90
2023-01-06T07:47:57.085Z,10.80
2023-01-06T07:50:26.322Z,11.00
2023-01-06T07:52:54.196Z,11.10
2023-01-06T07:55:21.985Z,10.70
2023-01-06T07:57:49.708Z,11.10
2023-01-06T08:00:17.672Z,10.90
2023-01-06T08:02:46.820Z,11.10
2023-01-06T08:05:14.623Z,10.80
2023-01-06T08:07:42.423Z,11.00
2023-01-06T08:10:10.403Z,10.80
2023-01-06T08:12:38.182Z,11.20
2023-01-06T08:15:06.897Z,11.00
2023-01-06T08:17:34.714Z,11.30
2023-01-06T08:20:04.039Z,11.40
2023-01-06T08:22:31.735Z,11.50
2023-01-06T08:24:59.487Z,11.50
2023-01-06T08:27:28.669Z,11.30
2023-01-06T08:29:56.401Z,11.60
2023-01-06T08:32:24.143Z,11.70
2023-01-06T08:34:51.919Z,11.60
2023-01-06T08:37:20.969Z,11.70
2023-01-06T08:39:48.791Z,11.70
2023-01-06T08:42:16.485Z,11.60
2023-01-06T08:44:44.661Z,11.80
2023-01-06T08:47:12.557Z,11.90
2023-01-06T08:49:40.452Z,11.80
2023-01-06T08:52:08.203Z,11.80
2023-01-06T08:54:37.322Z,11.80
2023-01-06T08:57:06.069Z,11.80
2023-01-06T08:59:33.857Z,11.70
2023-01-06T09:02:03.944Z,11.90
2023-01-06T09:04:33.886Z,11.90
2023-01-06T09:07:03.794Z,11.90
2023-01-06T09:09:33.523Z,11.90
2023-01-06T09:12:07.525Z,11.90
2023-01-06T09:14:37.982Z,11.90
2023-01-06T09:17:07.230Z,11.90
2023-01-06T09:19:36.953Z,11.90
2023-01-06T09:22:07.785Z,12.00
2023-01-06T09:24:37.486Z,12.00
2023-01-06T09:27:08.813Z,11.30
2023-01-06T09:29:39.051Z,12.00
2023-01-06T09:32:09.528Z,12.00
2023-01-06T09:34:39.277Z,12.10
2023-01-06T09:37:09.041Z,12.10
2023-01-06T09:39:39.050Z,12.20
2023-01-06T09:42:46.276Z,12.20
2023-01-06T09:45:20.659Z,11.90
2023-01-06T09:47:53.336Z,11.90
2023-01-06T09:50:35.210Z,12.30
2023-01-06T09:53:10.131Z,12.00
2023-01-06T09:55:44.308Z,12.00
2023-01-06T09:58:16.939Z,11.90
2023-01-06T10:00:47.849Z,12.30
2023-01-06T10:03:17.564Z,12.30
2023-01-06T10:05:56.193Z,12.10
2023-01-06T10:08:30.910Z,12.30
2023-01-06T10:11:13.697Z,12.10
2023-01-06T10:14:04.027Z,12.10
2023-01-06T10:16:44.226Z,12.20
2023-01-06T10:19:22.541Z,12.30
2023-01-06T10:21:57.977Z,12.30
2023-01-06T10:24:41.070Z,12.50
2023-01-06T10:27:21.389Z,12.70
2023-01-06T10:29:53.457Z,12.60
2023-01-06T10:32:23.257Z,12.30
2023-01-06T10:34:51.966Z,12.30
2023-01-06T10:37:23.313Z,12.40
2023-01-06T10:39:58.652Z,12.30
2023-01-06T10:42:57.510Z,12.50
2023-01-06T10:45:33.107Z,12.20
2023-01-06T10:48:02.367Z,12.20
2023-01-06T10:50:30.335Z,12.20
2023-01-06T10:52:58.054Z,12.10
2023-01-06T10:55:51.918Z,12.20
2023-01-06T10:58:29.142Z,12.20
2023-01-06T11:01:01.039Z,12.10
2023-01-06T11:03:34.126Z,12.00
2023-01-06T11:06:09.315Z,12.20
2023-01-06T11:08:38.661Z,12.20
2023-01-06T11:11:26.792Z,12.10
2023-01-06T11:13:57.637Z,12.20
2023-01-06T11:16:29.880Z,12.60
2023-01-06T11:18:59.755Z,12.30
2023-01-06T11:21:40.195Z,12.50
2023-01-06T11:24:18.592Z,12.50
2023-01-06T11:26:50.862Z,12.40
2023-01-06T11:29:24.681Z,12.60
2023-01-06T11:31:54.213Z,12.70
2023-01-06T11:34:24.624Z,12.60
2023-01-06T11:36:53.696Z,12.40
2023-01-06T11:39:27.191Z,12.60
2023-01-06T11:41:57.459Z,12.60
2023-01-06T11:44:32.282Z,12.50
2023-01-06T11:47:05.153Z,12.30
2023-01-06T11:49:37.782Z,12.30
2023-01-06T11:52:08.065Z,12.50
2023-01-06T11:54:38.914Z,12.20
2023-01-06T11:57:23.997Z,12.50
2023-01-06T12:00:06.047Z,12.30
2023-01-06T12:02:49.570Z,12.10
2023-01-06T12:05:25.755Z,12.60
2023-01-06T12:07:55.776Z,12.50
2023-01-06T12:10:27.484Z,12.50
2023-01-06T12:12:55.269Z,12.40
2023-01-06T12:15:24.662Z,12.60
2023-01-06T12:17:59.216Z,12.70
2023-01-06T12:20:30.296Z,12.60
2023-01-06T12:23:01.687Z,12.60
2023-01-06T12:25:35.989Z,12.50
2023-01-06T12:28:06.692Z,12.80
2023-01-06T12:30:38.053Z,12.60
2023-01-06T12:33:14.482Z,12.80
2023-01-06T12:35:43.950Z,12.70
2023-01-06T12:38:22.802Z,12.80
2023-01-06T12:40:56.236Z,12.30
2023-01-06T12:43:28.233Z,12.70
2023-01-06T12:46:00.212Z,12.60
2023-01-06T12:48:36.959Z,12.70
2023-01-06T12:51:09.553Z,12.60
2023-01-06T12:53:42.575Z,12.70
2023-01-06T12:56:33.376Z,12.30
2023-01-06T12:59:11.392Z,12.40
2023-01-06T13:01:43.998Z,12.40
2023-01-06T13:04:44.729Z,12.40
2023-01-06T13:07:21.828Z,12.50
2023-01-06T13:10:01.317Z,12.60
2023-01-06T13:12:47.433Z,12.40
2023-01-06T13:15:21.998Z,12.20
2023-01-06T13:17:59.190Z,12.40
2023-01-06T13:20:34.271Z,12.40
2023-01-06T13:23:15.458Z,12.40
2023-01-06T13:26:08.010Z,12.50
2023-01-06T13:28:46.034Z,12.40
2023-01-06T13:31:40.830Z,12.60
2023-01-06T13:34:37.186Z,12.50
2023-01-06T13:37:21.718Z,12.50
2023-01-06T13:39:54.596Z,12.60
2023-01-06T13:42:33.364Z,12.10
2023-01-06T13:45:01.671Z,12.00
2023-01-06T13:47:30.839Z,12.30
2023-01-06T13:49:59.663Z,12.50
2023-01-06T13:52:31.665Z,12.20
2023-01-06T13:55:21.774Z,12.60
2023-01-06T13:57:49.609Z,12.40
2023-01-06T14:00:26.974Z,12.20
2023-01-06T14:03:04.096Z,12.20
2023-01-06T14:05:55.955Z,12.20
2023-01-06T14:08:28.849Z,12.30
2023-01-06T14:11:00.775Z,12.40
2023-01-06T14:13:32.391Z,12.40
2023-01-06T14:16:04.778Z,12.10
2023-01-06T14:18:39.580Z,12.30
2023-01-06T14:21:17.072Z,12.20
2023-01-06T14:24:00.511Z,12.20
2023-01-06T14:26:53.721Z,12.20
2023-01-06T14:30:06.384Z,12.30
2023-01-06T14:33:02.797Z,12.40
2023-01-06T14:35:33.924Z,12.20
2023-01-06T14:38:04.529Z,12.10
2023-01-06T14:40:36.657Z,12.10
2023-01-06T14:43:08.468Z,12.20
2023-01-06T14:45:40.244Z,12.20
2023-01-06T14:48:13.539Z,12.10
2023-01-06T14:50:47.471Z,12.10
2023-01-06T14:53:22.355Z,12.10
2023-01-06T14:55:53.230Z,12.10
2023-01-06T14:58:31.425Z,12.20
2023-01-06T15:01:00.249Z,12.20
2023-01-06T15:03:29.357Z,12.10
2023-01-06T15:06:13.825Z,12.20
2023-01-06T15:08:41.670Z,12.30
2023-01-06T15:11:25.115Z,12.10
2023-01-06T15:13:52.976Z,12.10
2023-01-06T15:16:34.623Z,12.10
2023-01-06T15:19:03.339Z,11.90
2023-01-06T15:21:31.111Z,11.80
2023-01-06T15:23:58.952Z,11.90
2023-01-06T15:26:30.200Z,11.80
2023-01-06T15:29:03.673Z,11.90
2023-01-06T15:31:34.305Z,11.70
2023-01-06T15:34:04.222Z,12.00
2023-01-06T15:36:33.273Z,11.70
2023-01-06T15:39:04.276Z,11.80
2023-01-06T15:41:36.651Z,11.90
2023-01-06T15:44:20.922Z,11.90
2023-01-06T15:46:50.357Z,11.70
2023-01-06T15:49:27.285Z,11.80
2023-01-06T15:51:57.819Z,11.80
2023-01-06T15:54:27.661Z,11.80
2023-01-06T15:56:58.665Z,11.70
2023-01-06T15:59:30.572Z,11.80
2023-01-06T16:01:58.636Z,11.60
2023-01-06T16:04:26.770Z,11.80
2023-01-06T16:06:54.546Z,11.50
2023-01-06T16:09:37.768Z,11.50
2023-01-06T16:12:17.197Z,11.10
2023-01-06T16:14:47.068Z,11.60
2023-01-06T16:17:23.373Z,11.40
2023-01-06T16:19:59.706Z,11.20
2023-01-06T16:22:32.997Z,11.40
2023-01-06T16:25:02.417Z,11.50
2023-01-06T16:27:32.135Z,11.20
2023-01-06T16:30:19.012Z,11.10
2023-01-06T16:32:46.867Z,11.20
2023-01-06T16:35:16.798Z,11.10
2023-01-06T16:37:45.658Z,11.30
2023-01-06T16:40:15.267Z,11.10
2023-01-06T16:42:45.593Z,11.10
2023-01-06T16:45:26.804Z,11.50
2023-01-06T16:47:55.714Z,11.00
2023-01-06T16:50:26.148Z,11.40
2023-01-06T16:53:03.292Z,11.10
2023-01-06T16:55:31.379Z,11.20
2023-01-06T16:58:01.586Z,11.30
2023-01-06T17:00:33.093Z,11.40
2023-01-06T17:03:00.848Z,11.50
2023-01-06T17:05:30.558Z,11.50
2023-01-06T17:08:01.564Z,11.30
2023-01-06T17:10:29.544Z,11.20
2023-01-06T17:13:19.213Z,11.40
2023-01-06T17:15:47.152Z,11.50
2023-01-06T17:18:25.880Z,11.40
2023-01-06T17:20:59.658Z,11.30
2023-01-06T17:23:27.621Z,11.20
2023-01-06T17:26:01.422Z,11.10
2023-01-06T17:28:33.109Z,11.40
2023-01-06T17:31:01.928Z,11.50
2023-01-06T17:33:30.878Z,11.10
2023-01-06T17:35:59.999Z,11.20
2023-01-06T17:38:28.717Z,11.10
2023-01-06T17:41:07.726Z,11.40
2023-01-06T17:43:37.420Z,11.20
2023-01-06T17:46:17.925Z,11.30
2023-01-06T17:48:46.579Z,11.20
2023-01-06T17:51:16.980Z,11.50
2023-01-06T17:54:02.477Z,11.60
2023-01-06T17:56:30.860Z,11.40
2023-01-06T17:59:04.041Z,11.30
2023-01-06T18:01:32.274Z,11.20
2023-01-06T18:04:00.915Z,11.30
2023-01-06T18:06:32.145Z,11.20
2023-01-06T18:09:12.115Z,11.60
2023-01-06T18:11:41.388Z,11.30
2023-01-06T18:14:31.780Z,11.30
2023-01-06T18:17:04.261Z,11.50
2023-01-06T18:19:35.910Z,11.20
2023-01-06T18:22:11.024Z,11.30
2023-01-06T18:24:40.673Z,11.50
2023-01-06T18:27:15.809Z,11.10
2023-01-06T18:29:45.848Z,11.10
2023-01-06T18:32:24.480Z,11.40
2023-01-06T18:34:53.912Z,11.40
2023-01-06T18:37:26.647Z,11.20
2023-01-06T18:39:58.604Z,11.10
2023-01-06T18:42:32.421Z,11.50
2023-01-06T18:45:22.718Z,11.10
2023-01-06T18:47:54.133Z,11.30
2023-01-06T18:50:32.139Z,11.50
2023-01-06T18:53:02.080Z,11.40
2023-01-06T18:55:37.738Z,11.30
2023-01-06T18:58:17.182Z,11.50
2023-01-06T19:00:49.460Z,11.30
2023-01-06T19:03:30.115Z,11.20
2023-01-06T19:06:30.828Z,11.40
2023-01-06T19:08:58.640Z,11.30
2023-01-06T19:11:28.930Z,11.20
2023-01-06T19:14:00.282Z,11.20
2023-01-06T19:16:33.401Z,11.40
2023-01-06T19:19:23.830Z,11.30
2023-01-06T19:21:52.415Z,11.40
2023-01-06T19:24:41.888Z,11.10
2023-01-06T19:27:35.165Z,11.40
2023-01-06T19:30:35.021Z,11.10
2023-01-06T19:33:34.366Z,11.40
2023-01-06T19:36:26.391Z,11.30
2023-01-06T19:38:54.559Z,11.20
2023-01-06T19:41:27.433Z,11.10
2023-01-06T19:44:02.867Z,11.20
2023-01-06T19:46:34.696Z,11.50
2023-01-06T19:49:03.801Z,11.50
2023-01-06T19:51:34.106Z,11.20
2023-01-06T19:54:05.020Z,11.00
2023-01-06T19:56:35.835Z,11.40
2023-01-06T19:59:10.705Z,11.00
2023-01-06T20:01:38.708Z,11.00
2023-01-06T20:04:17.210Z,10.90
2023-01-06T20:06:45.093Z,11.00
2023-01-06T20:09:12.981Z,10.90
2023-01-06T20:11:41.987Z,11.20
2023-01-06T20:14:10.223Z,10.90
2023-01-06T20:16:38.453Z,11.00
2023-01-06T20:19:06.458Z,11.30
2023-01-06T20:21:37.552Z,10.90
2023-01-06T20:24:06.267Z,10.90
2023-01-06T20:26:34.351Z,11.20
2023-01-06T20:29:02.274Z,11.30
2023-01-06T20:31:30.377Z,11.00
2023-01-06T20:33:58.662Z,11.10
2023-01-06T20:36:26.667Z,11.10
2023-01-06T20:38:56.015Z,11.10
2023-01-06T20:41:24.434Z,11.10
2023-01-06T20:43:52.209Z,10.90
2023-01-06T20:46:20.133Z,11.10
2023-01-06T20:48:48.194Z,10.90
2023-01-06T20:51:15.947Z,11.10
2023-01-06T20:53:43.672Z,11.00
2023-01-06T20:56:12.953Z,11.00
2023-01-06T20:58:40.777Z,10.90
2023-01-06T21:01:08.629Z,11.00
2023-01-06T21:03:36.630Z,10.80
2023-01-06T21:06:04.803Z,10.80
2023-01-06T21:08:32.563Z,10.70
2023-01-06T21:11:00.512Z,10.90
2023-01-06T21:13:29.793Z,10.60
2023-01-06T21:15:57.687Z,11.10
2023-01-06T21:18:25.443Z,11.10
2023-01-06T21:20:53.435Z,10.80
2023-01-06T21:23:21.322Z,11.10
2023-01-06T21:25:49.229Z,10.90
2023-01-06T21:28:17.172Z,10.80
2023-01-06T21:30:46.416Z,10.90
2023-01-06T21:33:14.566Z,10.80
2023-01-06T21:35:42.410Z,10.90
2023-01-06T21:38:10.315Z,11.00
2023-01-06T21:40:38.103Z,10.90
2023-01-06T21:43:11.248Z,11.10
2023-01-06T21:45:40.130Z,10.30
2023-01-06T21:48:10.380Z,10.70
2023-01-06T21:50:40.796Z,11.10
2023-01-06T21:53:10.261Z,10.80
2023-01-06T21:55:38.526Z,10.90
2023-01-06T21:58:06.694Z,10.80
2023-01-06T22:00:34.547Z,11.10
2023-01-06T22:03:02.623Z,10.60
2023-01-06T22:05:32.077Z,10.80
2023-01-06T22:08:00.807Z,11.10
2023-01-06T22:10:28.861Z,10.60
2023-01-06T22:12:59.261Z,11.00
2023-01-06T22:15:29.154Z,11.00
2023-01-06T22:17:59.615Z,11.00
2023-01-06T22:20:29.410Z,10.90
2023-01-06T22:23:02.098Z,11.10
2023-01-06T22:25:30.000Z,10.10
2023-01-06T22:27:59.124Z,10.60
2023-01-06T22:30:30.515Z,11.00
2023-01-06T22:32:58.650Z,10.60
2023-01-06T22:35:26.769Z,11.00
2023-01-06T22:37:54.587Z,10.60
2023-01-06T22:40:23.733Z,10.90
2023-01-06T22:42:51.888Z,10.60
2023-01-06T22:45:19.909Z,10.80
2023-01-06T22:47:47.707Z,10.60
2023-01-06T22:50:15.881Z,10.70
2023-01-06T22:52:43.818Z,10.70
2023-01-06T22:55:11.951Z,10.60
2023-01-06T22:57:41.839Z,10.90
2023-01-06T23:00:15.058Z,10.80
2023-01-06T23:02:43.207Z,11.10
2023-01-06T23:05:11.602Z,10.60
2023-01-06T23:07:39.903Z,10.60
2023-01-06T23:10:09.387Z,10.90
2023-01-06T23:12:38.186Z,11.10
2023-01-06T23:15:09.523Z,10.70
2023-01-06T23:17:37.995Z,10.80
2023-01-06T23:20:06.808Z,10.70
2023-01-06T23:22:34.625Z,10.70
2023-01-06T23:25:02.758Z,10.80
2023-01-06T23:27:31.465Z,11.00
2023-01-06T23:29:59.440Z,10.90
2023-01-06T23:32:28.781Z,10.70
2023-01-06T23:34:56.680Z,10.90
2023-01-06T23:37:24.574Z,10.70
2023-01-06T23:39:53.172Z,10.50
2023-01-06T23:42:21.034Z,10.70
2023-01-06T23:44:48.814Z,10.70
2023-01-06T23:47:16.615Z,10.70
2023-01-06T23:49:48.086Z,10.80
2023-01-06T23:52:15.824Z,10.70
2023-01-06T23:54:43.570Z,10.60
2023-01-06T23:57:11.350Z,10.60
2023-01-06T23:59:39.150Z,11.10
